Time;durP1;ratioP1;P1;durP2;ratioP2;P2;SDS_P1;SDS_P2;PMS_P1;PMS_P2;Temp;Humidity;BMP_temperature;BMP_pressure;BME280_temperature;BME280_humidity;BME280_pressure;Samples;Min_cycle;Max_cycle;Signal;HPM_P1;HPM_P2
2022/11/18 00:01:27;;;;;;;29.03;15.37;;;0.10;99.90;;;;;;4758833;30;20274;-75
2022/11/18 00:04:03;;;;;;;28.13;15.57;;;0.10;99.90;;;;;;4789672;29;20209;-77
2022/11/18 00:06:38;;;;;;;31.43;15.63;;;0.10;99.90;;;;;;4773552;30;20215;-76
2022/11/18 00:09:05;;;;;;;28.93;15.70;;;0.10;99.90;;;;;;4758223;30;20212;-75
2022/11/18 00:14:23;;;;;;;29.90;15.33;;;0.10;99.90;;;;;;4789409;29;20328;-78
2022/11/18 00:17:00;;;;;;;28.07;15.57;;;0.00;99.90;;;;;;4773222;30;20302;-84
2022/11/18 00:19:30;;;;;;;29.77;16.17;;;0.10;99.90;;;;;;4789032;29;20213;-80
2022/11/18 00:21:57;;;;;;;31.43;17.07;;;0.10;99.90;;;;;;4773554;30;20252;-86
2022/11/18 00:24:25;;;;;;;31.93;15.57;;;0.20;99.90;;;;;;4774151;29;20219;-85
2022/11/18 00:26:56;;;;;;;29.40;15.53;;;0.10;99.90;;;;;;4789649;30;20291;-88
2022/11/18 00:29:27;;;;;;;26.43;14.87;;;0.20;99.90;;;;;;4773488;30;20689;-87
2022/11/18 00:31:55;;;;;;;26.17;14.83;;;0.20;99.90;;;;;;4759177;29;20271;-85
2022/11/18 00:34:23;;;;;;;23.60;13.30;;;0.20;99.90;;;;;;4773313;30;20229;-86
2022/11/18 00:36:50;;;;;;;27.03;13.67;;;0.00;99.90;;;;;;4773891;30;20211;-85
2022/11/18 00:39:18;;;;;;;25.47;14.00;;;0.00;99.90;;;;;;4789554;30;20303;-89
2022/11/18 00:44:32;;;;;;;24.73;13.23;;;0.00;99.90;;;;;;4772462;30;20206;-76
2022/11/18 00:46:59;;;;;;;22.80;12.87;;;0.00;99.90;;;;;;4772414;30;20227;-77
2022/11/18 00:49:26;;;;;;;23.13;12.63;;;0.00;99.90;;;;;;4789631;29;20575;-73
2022/11/18 00:51:53;;;;;;;24.53;14.03;;;0.10;99.90;;;;;;4758579;30;20219;-78
2022/11/18 00:54:19;;;;;;;28.23;14.23;;;0.00;99.90;;;;;;4772507;30;20576;-78
2022/11/18 00:56:46;;;;;;;27.10;14.20;;;0.00;99.90;;;;;;4772858;29;20225;-81
2022/11/18 00:59:13;;;;;;;31.47;15.23;;;-0.10;99.90;;;;;;4773645;30;20224;-73
2022/11/18 01:01:40;;;;;;;30.13;15.40;;;0.00;99.90;;;;;;4773221;30;20207;-75
2022/11/18 01:04:07;;;;;;;27.40;14.83;;;0.10;99.90;;;;;;4772939;30;20681;-76
2022/11/18 01:06:34;;;;;;;27.10;15.13;;;0.10;99.90;;;;;;4772361;30;20208;-80
2022/11/18 01:09:01;;;;;;;27.20;14.97;;;0.20;99.90;;;;;;4772378;29;20206;-75
2022/11/18 01:14:13;;;;;;;27.50;15.33;;;0.10;99.90;;;;;;4772495;30;20224;-85
2022/11/18 01:16:40;;;;;;;32.07;16.63;;;0.10;99.90;;;;;;4773609;29;20204;-77
2022/11/18 01:19:07;;;;;;;28.27;16.13;;;0.20;99.90;;;;;;4773007;30;20218;-77
2022/11/18 01:21:35;;;;;;;30.60;15.10;;;0.20;99.90;;;;;;4772180;30;20645;-78
2022/11/18 01:24:02;;;;;;;27.33;15.33;;;0.20;99.90;;;;;;4788972;29;20598;-87
2022/11/18 01:26:29;;;;;;;27.53;15.17;;;0.20;99.90;;;;;;4773805;29;20292;-89
2022/11/18 01:28:56;;;;;;;30.20;15.47;;;0.20;99.90;;;;;;4788511;29;20306;-78
2022/11/18 01:31:23;;;;;;;30.10;15.87;;;0.20;99.90;;;;;;4772881;30;20215;-78
2022/11/18 01:33:51;;;;;;;31.60;16.30;;;0.10;99.90;;;;;;4773398;30;20250;-78
2022/11/18 01:36:24;;;;;;;29.23;15.73;;;0.20;99.90;;;;;;4772759;30;20645;-77
2022/11/18 01:38:51;;;;;;;29.60;16.23;;;0.20;99.90;;;;;;4773613;30;20200;-78
2022/11/18 01:41:20;;;;;;;30.80;16.57;;;0.00;99.90;;;;;;4789016;29;20188;-80
2022/11/18 01:43:58;;;;;;;36.57;18.00;;;0.00;99.90;;;;;;4788401;29;20213;-81
2022/11/18 01:46:28;;;;;;;35.03;16.33;;;0.00;99.90;;;;;;4772589;30;20218;-87
2022/11/18 01:49:03;;;;;;;31.53;17.13;;;0.00;99.90;;;;;;4789086;29;20215;-88
2022/11/18 01:51:34;;;;;;;33.77;16.93;;;0.00;99.90;;;;;;4773047;30;20241;-86
2022/11/18 01:54:08;;;;;;;31.40;16.43;;;0.10;99.90;;;;;;4790094;29;20233;-87
2022/11/18 01:56:42;;;;;;;30.27;15.83;;;0.10;99.90;;;;;;4774466;30;20210;-87
2022/11/18 01:59:18;;;;;;;30.40;15.37;;;0.10;99.90;;;;;;4772423;30;20260;-81
2022/11/18 02:01:46;;;;;;;30.17;15.33;;;0.10;99.90;;;;;;4789825;29;20526;-77
2022/11/18 02:04:14;;;;;;;26.37;13.57;;;0.20;99.90;;;;;;4772739;30;20212;-77
2022/11/18 02:06:45;;;;;;;28.47;13.90;;;0.10;99.90;;;;;;4771621;30;20203;-82
2022/11/18 02:09:16;;;;;;;29.07;14.63;;;0.20;99.90;;;;;;4788190;30;20289;-81
2022/11/18 02:11:49;;;;;;;25.87;14.07;;;0.20;99.90;;;;;;4788003;29;20555;-78
2022/11/18 02:14:29;;;;;;;30.23;16.00;;;0.30;99.90;;;;;;4771790;30;20247;-79
2022/11/18 02:17:01;;;;;;;29.53;15.87;;;0.30;99.90;;;;;;4787990;29;20213;-78
2022/11/18 02:19:37;;;;;;;30.90;15.23;;;0.20;99.90;;;;;;4771993;30;20217;-78
2022/11/18 02:22:17;;;;;;;31.80;15.50;;;0.20;99.90;;;;;;4788133;29;20215;-77
2022/11/18 02:25:03;;;;;;;30.10;16.53;;;0.20;99.90;;;;;;4788092;29;20204;-86
2022/11/18 02:28:02;;;;;;;34.73;17.73;;;0.20;99.90;;;;;;4757627;30;20233;-79
2022/11/18 02:30:48;;;;;;;31.97;16.30;;;0.20;99.90;;;;;;4772407;30;20227;-78
2022/11/18 02:33:25;;;;;;;32.80;16.40;;;0.20;99.90;;;;;;4789801;29;20581;-77
2022/11/18 02:36:02;;;;;;;29.03;15.37;;;0.20;99.90;;;;;;4775074;30;20724;-77
2022/11/18 02:38:35;;;;;;;32.07;16.23;;;0.20;99.90;;;;;;4775664;30;20693;-79
2022/11/18 02:41:08;;;;;;;29.70;15.80;;;0.20;99.90;;;;;;4775226;30;20569;-84
2022/11/18 02:43:58;;;;;;;30.13;15.67;;;0.30;99.90;;;;;;4775374;30;20214;-82
2022/11/18 02:46:34;;;;;;;28.10;15.27;;;0.40;99.90;;;;;;4775073;30;20200;-82
2022/11/18 02:49:05;;;;;;;28.33;15.47;;;0.30;99.90;;;;;;4776684;30;20200;-89
2022/11/18 02:51:34;;;;;;;24.73;13.23;;;0.30;99.90;;;;;;4775131;30;20219;-78
2022/11/18 02:54:07;;;;;;;22.70;12.37;;;0.30;99.90;;;;;;4791217;29;20288;-77
2022/11/18 02:56:35;;;;;;;20.13;11.90;;;0.30;99.90;;;;;;4791251;30;20246;-88
2022/11/18 02:59:03;;;;;;;21.70;11.73;;;0.30;99.90;;;;;;4759779;30;20232;-87
2022/11/18 03:01:33;;;;;;;20.67;11.40;;;0.30;99.90;;;;;;4774618;30;20677;-78
2022/11/18 03:04:00;;;;;;;22.77;12.30;;;0.40;99.90;;;;;;4774770;30;20276;-80
2022/11/18 03:06:30;;;;;;;21.13;12.50;;;0.30;99.90;;;;;;4774500;30;20206;-77
2022/11/18 03:09:06;;;;;;;19.60;11.77;;;0.40;99.90;;;;;;4774837;30;20201;-80
2022/11/18 03:11:45;;;;;;;20.53;11.53;;;0.40;99.90;;;;;;4774486;30;20711;-76
2022/11/18 03:14:45;;;;;;;20.67;11.87;;;0.40;99.90;;;;;;4774719;30;20214;-82
2022/11/18 03:17:35;;;;;;;22.20;12.00;;;0.40;99.90;;;;;;4790447;29;20204;-80
2022/11/18 03:20:28;;;;;;;20.63;11.43;;;0.40;99.90;;;;;;4774062;30;20216;-84
2022/11/18 03:23:06;;;;;;;21.17;11.50;;;0.40;99.90;;;;;;4790448;29;20568;-78
2022/11/18 03:25:39;;;;;;;22.40;12.03;;;0.40;99.90;;;;;;4774835;29;20211;-77
2022/11/18 03:28:21;;;;;;;19.60;11.13;;;0.40;99.90;;;;;;4776877;30;20655;-83
2022/11/18 03:31:28;;;;;;;20.60;11.27;;;0.40;99.90;;;;;;4775271;30;20224;-87
2022/11/18 03:34:17;;;;;;;22.20;12.43;;;0.30;99.90;;;;;;4791261;30;20331;-79
2022/11/18 03:36:50;;;;;;;20.03;11.60;;;0.20;99.90;;;;;;4790570;29;20507;-83
2022/11/18 03:39:20;;;;;;;25.63;12.30;;;0.20;99.90;;;;;;4774276;30;20681;-83
2022/11/18 03:41:53;;;;;;;22.33;11.63;;;0.20;99.90;;;;;;4774531;29;20203;-91
2022/11/18 03:44:26;;;;;;;20.57;11.33;;;0.00;99.90;;;;;;4774150;30;20215;-85
2022/11/18 03:47:11;;;;;;;20.37;11.33;;;0.00;99.90;;;;;;4774876;30;20204;-83
2022/11/18 03:49:43;;;;;;;22.97;11.50;;;-0.10;99.90;;;;;;4790344;29;20207;-83
2022/11/18 03:52:17;;;;;;;23.07;11.40;;;-0.10;99.90;;;;;;4790506;29;20290;-79
2022/11/18 03:54:47;;;;;;;22.50;12.17;;;-0.10;99.90;;;;;;4791174;30;20258;-87
2022/11/18 03:57:22;;;;;;;22.90;12.37;;;0.00;99.90;;;;;;4774530;30;20264;-81
2022/11/18 03:59:58;;;;;;;23.47;12.17;;;0.00;99.90;;;;;;4774295;30;20340;-76
2022/11/18 04:02:28;;;;;;;22.43;12.03;;;0.10;99.90;;;;;;4773732;30;20226;-80
2022/11/18 04:04:58;;;;;;;23.93;12.83;;;0.10;99.90;;;;;;4790244;30;20210;-88
2022/11/18 04:07:53;;;;;;;28.57;12.80;;;0.10;99.90;;;;;;4758767;30;20310;-79
2022/11/18 04:10:40;;;;;;;26.13;12.47;;;0.20;99.90;;;;;;4789901;29;20271;-86
2022/11/18 04:13:23;;;;;;;23.07;13.00;;;0.00;99.90;;;;;;4759198;30;20215;-84
2022/11/18 04:15:52;;;;;;;25.57;13.30;;;-0.10;99.90;;;;;;4758864;30;20244;-81
2022/11/18 04:18:19;;;;;;;24.77;13.47;;;-0.10;99.90;;;;;;4790285;29;20222;-89
2022/11/18 04:20:46;;;;;;;23.10;12.80;;;-0.20;99.90;;;;;;4789654;29;20229;-81
2022/11/18 04:23:13;;;;;;;24.43;12.47;;;-0.20;99.90;;;;;;4773365;30;20253;-80
2022/11/18 04:25:40;;;;;;;27.07;13.13;;;-0.10;99.90;;;;;;4773257;30;20218;-78
2022/11/18 04:28:06;;;;;;;25.60;13.30;;;-0.10;99.90;;;;;;4789450;29;20600;-77
2022/11/18 04:30:33;;;;;;;27.03;13.60;;;-0.20;99.90;;;;;;4773512;30;20657;-78
2022/11/18 04:33:00;;;;;;;27.83;14.43;;;-0.30;99.90;;;;;;4773593;30;20223;-81
2022/11/18 04:35:28;;;;;;;29.13;13.60;;;-0.20;99.90;;;;;;4773154;30;20285;-81
2022/11/18 04:37:55;;;;;;;23.10;12.17;;;-0.20;99.90;;;;;;4758099;30;20204;-79
2022/11/18 04:40:22;;;;;;;24.73;12.00;;;-0.30;99.90;;;;;;4773125;30;20204;-82
2022/11/18 04:42:49;;;;;;;25.57;12.23;;;-0.30;99.90;;;;;;4789242;29;20203;-78
2022/11/18 04:45:16;;;;;;;27.73;11.73;;;-0.20;99.90;;;;;;4788841;29;20207;-82
2022/11/18 04:47:42;;;;;;;24.67;11.77;;;-0.20;99.90;;;;;;4772752;30;20220;-77
2022/11/18 04:50:09;;;;;;;23.40;12.00;;;-0.30;99.90;;;;;;4772733;30;20213;-77
2022/11/18 04:52:36;;;;;;;21.07;10.97;;;-0.30;99.90;;;;;;4773027;30;20556;-78
2022/11/18 04:55:03;;;;;;;20.10;11.23;;;-0.40;99.90;;;;;;4772152;30;20954;-79
2022/11/18 04:57:30;;;;;;;20.80;11.00;;;-0.40;99.90;;;;;;4772778;30;20215;-79
2022/11/18 04:59:57;;;;;;;22.03;11.47;;;-0.40;99.90;;;;;;4772612;30;20215;-80
2022/11/18 05:02:24;;;;;;;24.00;11.57;;;-0.40;99.90;;;;;;4772781;30;20207;-78
2022/11/18 05:04:51;;;;;;;22.93;12.10;;;-0.40;99.90;;;;;;4772659;30;20674;-86
2022/11/18 05:07:17;;;;;;;24.43;11.70;;;-0.50;99.90;;;;;;4772597;29;20684;-81
2022/11/18 05:09:44;;;;;;;21.30;11.40;;;-0.40;99.90;;;;;;4772803;30;20215;-77
2022/11/18 05:14:58;;;;;;;25.73;12.10;;;-0.40;99.90;;;;;;4772600;30;20235;-84
2022/11/18 05:17:25;;;;;;;26.70;12.33;;;-0.50;99.90;;;;;;4788726;30;20292;-80
2022/11/18 05:19:52;;;;;;;23.67;11.93;;;-0.50;99.90;;;;;;4772386;29;20207;-78
2022/11/18 05:22:19;;;;;;;23.40;11.90;;;-0.60;99.90;;;;;;4772334;30;20202;-85
2022/11/18 05:24:46;;;;;;;20.60;11.23;;;-0.60;99.90;;;;;;4788798;29;20209;-83
2022/11/18 05:27:13;;;;;;;25.67;11.80;;;-0.60;99.90;;;;;;4789245;29;20211;-86
2022/11/18 05:29:40;;;;;;;24.43;12.43;;;-0.50;99.90;;;;;;4772452;30;20411;-78
2022/11/18 05:32:07;;;;;;;25.43;12.33;;;-0.50;99.90;;;;;;4773523;30;20222;-89
2022/11/18 05:34:34;;;;;;;27.70;12.37;;;-0.60;99.90;;;;;;4774888;29;20728;-81
2022/11/18 05:37:00;;;;;;;28.17;12.30;;;-0.60;99.90;;;;;;4772421;29;20246;-77
2022/11/18 05:39:27;;;;;;;27.10;13.03;;;-0.80;99.90;;;;;;4774779;30;20213;-87
2022/11/18 05:44:40;;;;;;;22.83;11.27;;;-0.80;99.90;;;;;;4772986;30;20528;-87
2022/11/18 05:47:07;;;;;;;23.00;10.73;;;-0.80;99.90;;;;;;4772375;30;20210;-86
2022/11/18 05:49:33;;;;;;;19.27;10.07;;;-0.80;99.90;;;;;;4773591;30;20197;-87
2022/11/18 05:52:00;;;;;;;17.90;9.03;;;-0.80;99.90;;;;;;4789411;29;20219;-87
2022/11/18 05:54:27;;;;;;;22.63;10.13;;;-0.80;99.90;;;;;;4773547;30;20238;-88
2022/11/18 05:56:54;;;;;;;16.93;8.57;;;-0.80;99.90;;;;;;4775153;30;20233;-88
2022/11/18 05:59:21;;;;;;;16.40;8.33;;;-0.90;99.90;;;;;;4772096;29;20229;-77
2022/11/18 06:01:50;;;;;;;16.23;8.60;;;-0.90;99.90;;;;;;4788162;30;20685;-79
2022/11/18 06:04:19;;;;;;;16.50;8.90;;;-0.80;99.90;;;;;;4771989;30;20209;-76
2022/11/18 06:06:49;;;;;;;17.07;8.13;;;-0.80;99.90;;;;;;4772353;29;20545;-82
2022/11/18 06:09:20;;;;;;;15.33;8.10;;;-0.80;99.90;;;;;;4776107;30;20221;-79
2022/11/18 06:11:52;;;;;;;17.83;8.80;;;-0.80;99.90;;;;;;4776908;29;20556;-82
2022/11/18 06:14:24;;;;;;;16.17;8.77;;;-0.80;99.90;;;;;;4792199;29;20205;-81
2022/11/18 06:16:55;;;;;;;14.03;7.97;;;-0.80;99.90;;;;;;4777212;30;20235;-77
2022/11/18 06:19:22;;;;;;;14.33;7.73;;;-0.80;99.90;;;;;;4776528;30;20213;-81
2022/11/18 06:21:49;;;;;;;15.70;7.87;;;-0.70;99.90;;;;;;4775905;30;20201;-79
2022/11/18 06:24:17;;;;;;;17.43;7.70;;;-0.70;99.90;;;;;;4775907;30;20211;-81
2022/11/18 06:26:45;;;;;;;21.13;8.43;;;-0.80;99.90;;;;;;4781465;30;20201;-93
2022/11/18 06:29:17;;;;;;;13.40;7.40;;;-0.80;99.90;;;;;;4798126;29;20213;-91
2022/11/18 06:31:51;;;;;;;10.93;6.00;;;-0.80;99.90;;;;;;4784550;30;20232;-92
2022/11/18 06:34:18;;;;;;;9.63;5.37;;;-0.80;99.90;;;;;;4777497;30;20196;-95
2022/11/18 06:36:45;;;;;;;9.10;5.60;;;-0.80;99.90;;;;;;4792888;29;20229;-86
2022/11/18 06:39:12;;;;;;;10.20;5.90;;;-0.80;99.90;;;;;;4776661;30;20216;-85
2022/11/18 06:41:38;;;;;;;9.77;5.20;;;-0.80;99.90;;;;;;4779223;29;20211;-84
2022/11/18 06:44:05;;;;;;;9.27;4.97;;;-0.80;99.90;;;;;;4796849;29;20238;-89
2022/11/18 06:49:17;;;;;;;10.53;5.33;;;-0.90;99.90;;;;;;4778439;30;20205;-83
2022/11/18 06:51:44;;;;;;;12.40;5.80;;;-0.90;99.90;;;;;;4774779;30;20206;-77
2022/11/18 06:54:11;;;;;;;10.57;5.97;;;-1.00;99.90;;;;;;4774330;30;20242;-80
2022/11/18 06:56:38;;;;;;;9.70;5.30;;;-1.00;99.90;;;;;;4774592;30;20258;-80
2022/11/18 06:59:05;;;;;;;10.67;5.60;;;-0.80;99.90;;;;;;4790918;30;20226;-85
2022/11/18 07:01:38;;;;;;;10.20;6.23;;;-0.80;99.90;;;;;;4775311;30;20212;-80
2022/11/18 07:04:05;;;;;;;11.40;6.10;;;-0.80;99.90;;;;;;4774563;30;20211;-86
2022/11/18 07:06:34;;;;;;;12.80;6.60;;;-0.80;99.90;;;;;;4774571;30;20309;-79
2022/11/18 07:09:04;;;;;;;12.30;6.53;;;-0.80;99.90;;;;;;4774699;30;20210;-76
2022/11/18 07:11:32;;;;;;;12.63;6.57;;;-0.70;99.90;;;;;;4774888;30;20316;-80
2022/11/18 07:13:59;;;;;;;12.30;6.77;;;-0.70;99.90;;;;;;4775639;30;20212;-75
2022/11/18 07:16:27;;;;;;;11.47;6.47;;;-0.80;99.90;;;;;;4790850;29;20557;-73
2022/11/18 07:18:55;;;;;;;12.97;6.83;;;-0.90;99.90;;;;;;4773850;30;20564;-77
2022/11/18 07:21:27;;;;;;;18.07;7.37;;;-0.90;99.90;;;;;;4773960;30;20235;-74
2022/11/18 07:23:55;;;;;;;16.13;7.07;;;-0.90;99.90;;;;;;4774488;30;20291;-76
2022/11/18 07:26:23;;;;;;;13.30;6.87;;;-0.90;99.90;;;;;;4773813;30;20221;-74
2022/11/18 07:28:50;;;;;;;14.60;7.80;;;-0.80;99.90;;;;;;4774424;30;20557;-75
2022/11/18 07:31:19;;;;;;;13.97;6.90;;;-0.70;99.90;;;;;;4760197;30;20705;-76
2022/11/18 07:33:47;;;;;;;14.20;7.60;;;-0.70;99.90;;;;;;4790132;30;20593;-76
2022/11/18 07:36:23;;;;;;;14.27;7.70;;;-0.70;99.90;;;;;;4773771;30;20225;-74
2022/11/18 07:38:51;;;;;;;13.53;7.60;;;-0.80;99.90;;;;;;4789871;30;20229;-73
2022/11/18 07:41:20;;;;;;;14.83;7.50;;;-0.80;99.90;;;;;;4774130;30;20229;-83
2022/11/18 07:43:49;;;;;;;14.63;7.60;;;-0.80;99.90;;;;;;4790683;29;20282;-76
2022/11/18 07:46:18;;;;;;;15.07;7.33;;;-0.80;99.90;;;;;;4790036;29;20197;-76
2022/11/18 07:48:48;;;;;;;14.20;7.57;;;-0.80;99.90;;;;;;4790408;29;20247;-74
2022/11/18 07:51:19;;;;;;;13.67;7.33;;;-0.70;99.90;;;;;;4773872;30;20207;-74
2022/11/18 07:53:46;;;;;;;16.47;7.37;;;-0.70;99.90;;;;;;4789868;30;20345;-78
2022/11/18 07:56:14;;;;;;;15.40;7.73;;;-0.60;99.90;;;;;;4773973;30;20256;-75
2022/11/18 07:58:41;;;;;;;13.97;7.47;;;-0.70;99.90;;;;;;4773879;30;20228;-76
2022/11/18 08:01:16;;;;;;;13.70;7.73;;;-0.70;99.90;;;;;;4773587;30;20209;-75
2022/11/18 08:03:44;;;;;;;17.33;8.03;;;-0.70;99.90;;;;;;4773904;30;20231;-74
2022/11/18 08:06:13;;;;;;;16.13;7.73;;;-0.60;99.90;;;;;;4773392;29;20211;-75
2022/11/18 08:08:41;;;;;;;14.90;7.83;;;-0.60;99.90;;;;;;4790620;30;20210;-77
2022/11/18 08:11:11;;;;;;;13.70;7.93;;;-0.60;99.90;;;;;;4779311;29;20446;-73
2022/11/18 08:13:41;;;;;;;15.40;7.33;;;-0.60;99.90;;;;;;4792059;29;20462;-76
2022/11/18 08:16:14;;;;;;;15.27;9.97;;;-0.60;99.90;;;;;;4790724;29;20925;-81
2022/11/18 08:18:41;;;;;;;14.33;8.10;;;-0.60;99.90;;;;;;4791938;29;20549;-81
2022/11/18 08:21:08;;;;;;;14.80;7.57;;;-0.60;99.90;;;;;;4792825;29;20675;-85
2022/11/18 08:23:35;;;;;;;14.25;9.05;;;-0.50;99.90;;;;;;4791353;29;20456;-83
2022/11/18 08:26:13;;;;;;;13.57;7.20;;;-0.40;99.90;;;;;;4791929;29;20232;-86
2022/11/18 08:28:43;;;;;;;12.27;7.00;;;-0.40;99.90;;;;;;4806244;29;20237;-82
2022/11/18 08:31:17;;;;;;;11.50;7.30;;;-0.40;99.90;;;;;;4790775;29;20245;-80
2022/11/18 08:33:45;;;;;;;13.07;6.90;;;-0.50;99.90;;;;;;4791527;29;20204;-83
2022/11/18 08:36:19;;;;;;;12.60;7.20;;;-0.30;99.90;;;;;;4807750;29;20224;-83
2022/11/18 08:38:46;;;;;;;16.03;7.80;;;-0.30;99.90;;;;;;4808731;29;20209;-84
2022/11/18 08:41:25;;;;;;;14.80;7.67;;;-0.20;99.90;;;;;;4807715;29;20608;-86
2022/11/18 08:43:52;;;;;;;14.57;7.67;;;-0.10;99.90;;;;;;4790911;29;20724;-85
2022/11/18 08:46:19;;;;;;;13.20;7.23;;;0.00;99.90;;;;;;4807428;29;20213;-80
2022/11/18 08:48:46;;;;;;;14.77;9.35;;;0.10;99.90;;;;;;4806982;29;20450;-79
2022/11/18 08:51:14;;;;;;;15.50;7.20;;;0.20;99.90;;;;;;4791082;29;20199;-78
2022/11/18 08:53:41;;;;;;;12.90;6.97;;;0.20;99.90;;;;;;4806962;29;20615;-79
2022/11/18 08:56:17;;;;;;;12.80;6.90;;;0.20;99.90;;;;;;4790764;29;20233;-82
2022/11/18 08:58:45;;;;;;;12.10;6.90;;;0.20;99.90;;;;;;4791029;29;20234;-83
2022/11/18 09:01:12;;;;;;;11.30;6.77;;;0.20;99.90;;;;;;4791104;29;20211;-80
2022/11/18 09:03:56;;;;;;;12.67;6.70;;;0.20;99.90;;;;;;4790969;29;20722;-80
2022/11/18 09:06:25;;;;;;;10.87;6.53;;;0.20;99.90;;;;;;4776852;29;20215;-84
2022/11/18 09:08:54;;;;;;;11.60;6.80;;;0.30;99.90;;;;;;4791385;29;20235;-78
2022/11/18 09:11:24;;;;;;;10.60;6.53;;;0.30;99.90;;;;;;4806839;29;20226;-78
2022/11/18 09:13:53;;;;;;;10.13;6.40;;;0.20;99.90;;;;;;4791865;29;20260;-80
2022/11/18 09:16:40;;;;;;;9.43;5.90;;;0.40;99.90;;;;;;4790406;29;20314;-81
2022/11/18 09:19:07;;;;;;;11.20;6.40;;;0.40;99.90;;;;;;4791091;29;20207;-78
2022/11/18 09:21:57;;;;;;;9.63;6.20;;;0.40;99.90;;;;;;4807275;29;20210;-82
2022/11/18 09:24:24;;;;;;;12.27;6.83;;;0.30;99.90;;;;;;4806671;29;20568;-78
2022/11/18 09:26:52;;;;;;;11.73;6.33;;;0.10;99.90;;;;;;4806528;29;20291;-79
2022/11/18 09:29:24;;;;;;;11.50;6.73;;;0.20;99.90;;;;;;4790143;29;20260;-81
2022/11/18 09:31:54;;;;;;;12.30;6.70;;;0.30;99.90;;;;;;4790011;29;20649;-77
2022/11/18 09:34:21;;;;;;;10.87;5.77;;;0.30;99.90;;;;;;4806503;29;20211;-84
2022/11/18 09:36:49;;;;;;;17.70;6.60;;;0.20;99.90;;;;;;4789869;29;20318;-84
2022/11/18 09:39:16;;;;;;;10.27;5.70;;;0.20;99.90;;;;;;4807074;29;20204;-87
2022/11/18 09:41:46;;;;;;;8.03;5.20;;;0.30;99.90;;;;;;4807244;29;20538;-85
2022/11/18 09:44:19;;;;;;;12.43;6.10;;;0.40;99.90;;;;;;4790881;29;20218;-82
2022/11/18 09:47:19;;;;;;;10.57;5.73;;;0.10;99.90;;;;;;4807387;29;20218;-83
2022/11/18 09:49:47;;;;;;;10.50;6.37;;;0.00;99.90;;;;;;4791520;29;20199;-88
2022/11/18 09:52:23;;;;;;;11.97;7.27;;;0.00;99.90;;;;;;4790372;29;20219;-73
2022/11/18 09:54:50;;;;;;;13.30;7.20;;;0.00;99.90;;;;;;4789716;29;20245;-76
2022/11/18 09:57:20;;;;;;;11.63;6.90;;;0.00;99.90;;;;;;4789604;29;20588;-78
2022/11/18 09:59:47;;;;;;;12.27;7.10;;;0.00;99.90;;;;;;4789622;29;20688;-75
2022/11/18 10:02:36;;;;;;;13.90;6.40;;;0.00;99.90;;;;;;4806479;29;20221;-77
2022/11/18 10:05:27;;;;;;;11.27;6.40;;;0.00;99.90;;;;;;4789948;29;20210;-75
2022/11/18 10:08:14;;;;;;;10.93;6.47;;;-0.10;99.90;;;;;;4804701;29;20648;-75
2022/11/18 10:11:11;;;;;;;10.20;5.83;;;-0.10;99.90;;;;;;4804706;29;20207;-77
2022/11/18 10:14:00;;;;;;;12.03;6.33;;;-0.10;99.90;;;;;;4752886;30;20205;-75
2022/11/18 10:16:52;;;;;;;13.03;6.53;;;0.00;99.90;;;;;;4753027;30;20246;-75
2022/11/18 10:19:38;;;;;;;15.43;6.23;;;0.10;99.90;;;;;;4752998;30;20215;-73
2022/11/18 10:22:19;;;;;;;10.27;5.83;;;0.20;99.90;;;;;;4752799;30;20208;-75
2022/11/18 10:24:53;;;;;;;10.67;5.77;;;0.20;99.90;;;;;;4767399;30;20682;-73
2022/11/18 10:27:21;;;;;;;10.90;6.13;;;0.20;99.90;;;;;;4752920;30;20230;-77
2022/11/18 10:29:55;;;;;;;8.80;5.63;;;0.20;99.90;;;;;;4753084;30;20214;-78
2022/11/18 10:32:23;;;;;;;9.40;5.50;;;0.30;99.90;;;;;;4752839;30;20729;-75
2022/11/18 10:34:55;;;;;;;8.67;5.40;;;0.30;99.90;;;;;;4753259;30;20205;-75
2022/11/18 10:37:35;;;;;;;9.23;5.33;;;0.40;99.90;;;;;;4752725;30;20782;-79
2022/11/18 10:40:27;;;;;;;8.97;5.73;;;0.40;99.90;;;;;;4753236;30;20207;-78
2022/11/18 10:42:55;;;;;;;11.20;5.50;;;0.30;99.90;;;;;;4767535;30;20211;-76
2022/11/18 10:45:22;;;;;;;10.10;5.77;;;0.40;99.90;;;;;;4729152;30;20723;-79
2022/11/18 10:48:14;;;;;;;8.37;5.47;;;0.40;99.90;;;;;;4764300;30;20624;-74
2022/11/18 10:50:46;;;;;;;8.23;5.20;;;0.40;99.90;;;;;;4773558;30;20312;-75
2022/11/18 10:53:33;;;;;;;8.73;5.37;;;0.40;99.90;;;;;;4782845;29;20275;-78
2022/11/18 10:56:02;;;;;;;10.77;5.93;;;0.50;99.90;;;;;;4786224;29;20200;-79
2022/11/18 10:58:31;;;;;;;9.67;5.50;;;0.50;99.90;;;;;;4772678;30;20330;-79
2022/11/18 11:01:12;;;;;;;11.87;5.87;;;0.50;99.90;;;;;;4771989;30;20209;-85
2022/11/18 11:03:51;;;;;;;8.57;5.37;;;0.40;99.90;;;;;;4771805;30;20704;-82
2022/11/18 11:06:37;;;;;;;8.47;4.93;;;0.30;99.90;;;;;;4771576;30;20212;-82
2022/11/18 11:09:09;;;;;;;9.57;5.40;;;0.20;99.90;;;;;;4771999;30;20203;-84
2022/11/18 11:11:39;;;;;;;7.03;4.57;;;0.30;99.90;;;;;;4773496;30;20248;-82
2022/11/18 11:14:25;;;;;;;13.27;4.73;;;0.30;99.90;;;;;;4773449;30;20214;-80
2022/11/18 11:17:12;;;;;;;6.10;4.23;;;0.30;99.90;;;;;;4772674;30;20235;-80
2022/11/18 11:20:02;;;;;;;7.67;4.53;;;0.20;99.90;;;;;;4786452;30;20201;-74
2022/11/18 11:22:29;;;;;;;7.27;3.93;;;0.10;99.90;;;;;;4771609;30;20224;-72
2022/11/18 11:24:56;;;;;;;6.40;4.13;;;0.00;99.90;;;;;;4771128;30;20212;-75
2022/11/18 11:27:42;;;;;;;6.60;4.10;;;0.00;99.90;;;;;;4756709;30;20205;-71
2022/11/18 11:30:36;;;;;;;7.27;4.13;;;0.00;99.90;;;;;;4774078;30;20207;-75
2022/11/18 11:33:30;;;;;;;7.23;4.00;;;0.10;99.90;;;;;;4786049;29;20242;-75
2022/11/18 11:36:13;;;;;;;6.33;4.00;;;0.20;99.90;;;;;;4771097;30;20204;-76
2022/11/18 11:39:07;;;;;;;6.30;4.27;;;0.10;99.90;;;;;;4775513;29;20223;-77
2022/11/18 11:41:46;;;;;;;7.87;4.00;;;0.20;99.90;;;;;;4774042;30;20566;-78
2022/11/18 11:44:52;;;;;;;6.50;4.03;;;0.20;99.90;;;;;;4773364;30;20215;-73
2022/11/18 11:47:46;;;;;;;5.83;3.70;;;0.20;99.90;;;;;;4780282;30;20223;-78
2022/11/18 11:50:21;;;;;;;5.83;3.97;;;0.10;99.90;;;;;;4773269;30;20214;-72
2022/11/18 11:53:18;;;;;;;6.93;4.07;;;0.20;99.90;;;;;;4773360;30;20206;-77
2022/11/18 11:56:02;;;;;;;6.30;3.87;;;0.20;99.90;;;;;;4773285;30;20216;-76
2022/11/18 11:58:36;;;;;;;7.77;3.83;;;0.30;99.90;;;;;;4789773;30;20242;-81
2022/11/18 12:01:08;;;;;;;6.97;4.10;;;0.30;99.90;;;;;;4788612;30;20203;-81
2022/11/18 12:03:38;;;;;;;7.53;4.10;;;0.30;99.90;;;;;;4787868;29;20210;-75
2022/11/18 12:06:08;;;;;;;6.63;4.03;;;0.30;99.90;;;;;;4772706;30;20200;-73
2022/11/18 12:08:38;;;;;;;6.63;4.27;;;0.30;99.90;;;;;;4773040;30;20210;-71
2022/11/18 12:11:16;;;;;;;8.37;4.03;;;0.30;99.90;;;;;;4789355;30;20197;-74
2022/11/18 12:13:51;;;;;;;6.13;3.60;;;0.20;99.90;;;;;;4773433;30;20212;-77
2022/11/18 12:16:45;;;;;;;6.80;4.00;;;0.20;99.90;;;;;;4773383;30;20714;-72
2022/11/18 12:19:15;;;;;;;5.33;3.30;;;0.30;99.90;;;;;;4788423;29;20204;-72
2022/11/18 12:21:45;;;;;;;5.63;3.73;;;0.40;99.90;;;;;;4773603;29;20300;-78
2022/11/18 12:24:19;;;;;;;7.13;4.23;;;0.40;99.90;;;;;;4773212;30;20288;-70
2022/11/18 12:26:48;;;;;;;5.93;3.67;;;0.50;99.90;;;;;;4789364;29;20254;-74
2022/11/18 12:29:19;;;;;;;8.63;4.13;;;0.60;99.90;;;;;;4773311;30;20211;-77
2022/11/18 12:32:02;;;;;;;8.00;3.97;;;0.50;99.90;;;;;;4789384;30;20285;-73
2022/11/18 12:34:43;;;;;;;9.73;4.50;;;0.50;99.90;;;;;;4773085;30;20223;-74
2022/11/18 12:37:22;;;;;;;7.73;4.53;;;0.40;99.90;;;;;;4787279;29;20234;-74
2022/11/18 12:39:56;;;;;;;7.87;4.13;;;0.30;99.90;;;;;;4772787;30;20693;-73
2022/11/18 12:45:43;;;;;;;10.13;4.67;;;0.40;99.90;;;;;;4773053;30;20204;-77
2022/11/18 12:48:22;;;;;;;6.67;4.27;;;0.50;99.90;;;;;;4789120;30;20213;-75
2022/11/18 12:50:55;;;;;;;9.27;4.47;;;0.40;99.90;;;;;;4774307;30;20680;-77
2022/11/18 12:53:47;;;;;;;9.33;4.70;;;0.40;99.90;;;;;;4790303;29;20236;-76
2022/11/18 12:56:16;;;;;;;7.00;4.50;;;0.40;99.90;;;;;;4773704;30;20658;-77
2022/11/18 12:58:45;;;;;;;8.17;4.63;;;0.50;99.90;;;;;;4789620;30;20235;-75
2022/11/18 13:01:15;;;;;;;6.65;4.30;;;0.50;99.90;;;;;;4773800;30;20397;-84
2022/11/18 13:03:42;;;;;;;9.47;4.70;;;0.50;99.90;;;;;;4777124;30;20220;-86
2022/11/18 13:06:33;;;;;;;8.73;5.00;;;0.50;99.90;;;;;;4760182;30;20223;-84
2022/11/18 13:09:02;;;;;;;7.63;4.37;;;0.50;99.90;;;;;;4719875;30;20208;-75
2022/11/18 13:11:44;;;;;;;6.20;3.83;;;0.60;99.90;;;;;;4718985;30;20272;-75
2022/11/18 13:17:50;;;;;;;9.10;4.50;;;0.40;99.90;;;;;;4732518;30;20225;-77
2022/11/18 13:20:28;;;;;;;7.00;4.43;;;0.50;99.90;;;;;;4733302;30;20736;-73
2022/11/18 13:25:44;;;;;;;7.40;4.70;;;0.30;99.90;;;;;;4733047;30;20229;-73
2022/11/18 13:28:27;;;;;;;8.93;4.77;;;0.30;99.90;;;;;;4732801;30;20253;-75
2022/11/18 13:31:22;;;;;;;7.63;4.40;;;0.30;99.90;;;;;;4718147;30;20712;-75
2022/11/18 13:33:51;;;;;;;6.30;4.17;;;0.20;99.90;;;;;;4732731;30;20213;-71
2022/11/18 13:36:21;;;;;;;8.07;4.30;;;0.10;99.90;;;;;;4718231;30;20206;-78